createdAt,value
2023-05-21T16:33:00.683Z,0.4598
2023-05-21T16:34:03.595Z,0.4768
2023-05-21T16:35:06.538Z,0.4681
2023-05-21T16:36:09.487Z,0.4779
2023-05-21T16:37:12.455Z,0.4919
2023-05-21T16:38:15.435Z,0.4884
2023-05-21T16:39:18.376Z,0.4901
2023-05-21T16:40:21.318Z,0.5072
2023-05-21T16:41:24.306Z,0.5075
2023-05-21T16:42:27.323Z,0.5068
2023-05-21T16:43:30.223Z,0.5202
2023-05-21T16:44:33.172Z,0.5030
2023-05-21T16:45:36.339Z,0.5164
2023-05-21T16:46:39.174Z,0.4938
2023-05-21T16:47:42.181Z,0.5033
2023-05-21T16:48:44.995Z,0.5032
2023-05-21T16:49:48.007Z,0.4822
2023-05-21T16:50:50.933Z,0.5053
2023-05-21T16:51:53.897Z,0.4970
2023-05-21T16:52:56.837Z,0.4778
2023-05-21T16:53:59.803Z,0.4939
2023-05-21T16:55:02.790Z,0.4825
2023-05-21T16:56:05.781Z,0.4917
2023-05-21T16:57:08.679Z,0.5161
2023-05-21T16:58:11.643Z,0.5124
2023-05-21T16:59:14.605Z,0.5031
2023-05-21T17:00:17.580Z,0.5300
2023-05-21T17:01:20.628Z,0.5195
2023-05-21T17:02:23.560Z,0.5239
2023-05-21T17:03:26.477Z,0.5457
2023-05-21T17:04:29.453Z,0.5124
2023-05-21T17:05:32.388Z,0.5169
2023-05-21T17:06:35.314Z,0.5084
2023-05-21T17:07:38.274Z,0.4984
2023-05-21T17:08:41.245Z,0.4955
2023-05-21T17:09:44.256Z,0.5096
2023-05-21T17:10:47.419Z,0.5100
2023-05-21T17:11:50.140Z,0.4939
2023-05-21T17:12:53.129Z,0.5043
2023-05-21T17:13:56.053Z,0.5202
2023-05-21T17:14:59.017Z,0.5312
2023-05-21T17:16:02.001Z,0.5147
2023-05-21T17:17:04.927Z,0.5143
2023-05-21T17:18:07.932Z,0.5192
2023-05-21T17:19:10.894Z,0.5021
2023-05-21T17:20:13.787Z,0.4955
2023-05-21T17:21:16.767Z,0.4768
2023-05-21T17:22:19.894Z,0.4781
2023-05-21T17:23:22.765Z,0.5182
2023-05-21T17:24:25.615Z,0.5175
2023-05-21T17:25:28.572Z,0.5230
2023-05-21T17:26:31.568Z,0.5040
2023-05-21T17:27:34.509Z,0.4954
2023-05-21T17:28:37.453Z,0.5075
2023-05-21T17:29:40.403Z,0.5005
2023-05-21T17:30:43.373Z,0.5134
2023-05-21T17:31:46.366Z,0.5279
2023-05-21T17:32:49.309Z,0.5030
2023-05-21T17:33:52.261Z,0.4942
2023-05-21T17:34:55.203Z,0.5100
2023-05-21T17:35:58.180Z,0.5225
2023-05-21T17:37:01.111Z,0.5181
2023-05-21T17:38:04.130Z,0.5092
2023-05-21T17:39:07.051Z,0.5040
2023-05-21T17:40:09.999Z,0.5102
2023-05-21T17:41:12.952Z,0.5028
2023-05-21T17:42:15.902Z,0.5149
2023-05-21T17:43:18.858Z,0.4935
2023-05-21T17:44:21.852Z,0.5012
2023-05-21T17:45:24.782Z,0.5100
2023-05-21T17:46:27.768Z,0.5086
2023-05-21T17:47:30.708Z,0.4796
2023-05-21T17:48:33.645Z,0.5119
2023-05-21T17:49:36.683Z,0.5046
2023-05-21T17:50:39.557Z,0.5190
2023-05-21T17:51:42.516Z,0.4914
2023-05-21T17:52:45.501Z,0.5210
2023-05-21T17:53:48.432Z,0.5204
2023-05-21T17:54:51.376Z,0.5165
2023-05-21T17:55:54.551Z,0.5285
2023-05-21T17:56:57.290Z,0.5117
2023-05-21T17:58:00.233Z,0.5069
2023-05-21T17:59:03.195Z,0.4880
2023-05-21T18:00:06.141Z,0.4981
2023-05-21T18:01:09.125Z,0.5128
2023-05-21T18:02:12.085Z,0.5191
2023-05-21T18:03:15.103Z,0.5252
2023-05-21T18:04:18.051Z,0.5332
2023-05-21T18:05:20.932Z,0.5403
2023-05-21T18:06:23.914Z,0.5196
2023-05-21T18:07:26.846Z,0.5363
2023-05-21T18:08:29.878Z,0.5001
2023-05-21T18:09:32.759Z,0.5013
2023-05-21T18:10:35.712Z,0.5185
2023-05-21T18:11:38.693Z,0.5301
2023-05-21T18:12:41.634Z,0.5156
2023-05-21T18:13:44.599Z,0.5290
2023-05-21T18:14:47.675Z,0.5150
2023-05-21T18:15:50.509Z,0.4910
2023-05-21T18:16:53.541Z,0.4931
2023-05-21T18:17:56.541Z,0.5243
2023-05-21T18:18:59.449Z,0.5217
2023-05-21T18:20:02.357Z,0.5196
2023-05-21T18:21:05.275Z,0.5192
2023-05-21T18:22:08.256Z,0.5519
2023-05-21T18:23:11.197Z,0.5332
2023-05-21T18:24:14.160Z,0.5363
2023-05-21T18:25:17.124Z,0.5378
2023-05-21T18:26:20.602Z,0.5320
2023-05-21T18:27:23.078Z,0.5435
2023-05-21T18:28:26.036Z,0.5297
2023-05-21T18:29:28.911Z,0.5117
2023-05-21T18:30:31.875Z,0.5411
2023-05-21T18:31:34.915Z,0.5284
2023-05-21T18:32:37.833Z,0.5116
2023-05-21T18:33:40.734Z,0.4796
2023-05-21T18:34:43.706Z,0.4911
2023-05-21T18:35:46.714Z,0.4961
2023-05-21T18:36:49.600Z,0.5278
2023-05-21T18:37:52.573Z,0.5577
2023-05-21T18:38:55.533Z,0.5616
2023-05-21T18:39:58.488Z,0.5386
2023-05-21T18:41:01.421Z,0.5325
2023-05-21T18:42:12.832Z,0.5450
2023-05-21T18:43:07.316Z,0.5350
2023-05-21T18:44:10.341Z,0.5201
2023-05-21T18:45:13.226Z,0.5052
2023-05-21T18:46:16.247Z,0.5119
2023-05-21T18:47:19.142Z,0.5152
2023-05-21T18:48:22.093Z,0.5238
2023-05-21T18:49:25.043Z,0.5250
2023-05-21T18:50:27.961Z,0.5118
2023-05-21T18:51:30.926Z,0.5167
2023-05-21T18:52:33.870Z,0.5306
2023-05-21T18:53:36.811Z,0.5091
2023-05-21T18:54:39.752Z,0.5058
2023-05-21T18:55:42.727Z,0.5075
2023-05-21T18:56:45.666Z,0.4963
2023-05-21T18:57:48.607Z,0.5272
2023-05-21T18:58:51.556Z,0.5347
2023-05-21T18:59:54.511Z,0.5350
2023-05-21T19:00:57.450Z,0.5313
2023-05-21T19:02:00.451Z,0.5241
2023-05-21T19:03:03.408Z,0.5336
2023-05-21T19:04:06.326Z,0.5173
2023-05-21T19:05:09.333Z,0.5446
2023-05-21T19:06:12.322Z,0.5355
2023-05-21T19:07:15.139Z,0.5138
2023-05-21T19:08:18.086Z,0.5166
2023-05-21T19:09:21.115Z,0.5040
2023-05-21T19:10:24.089Z,0.5249
2023-05-21T19:11:27.072Z,0.5247
2023-05-21T19:12:29.902Z,0.5540
2023-05-21T19:13:32.928Z,0.5377
2023-05-21T19:14:35.798Z,0.5175
2023-05-21T19:15:38.882Z,0.5093
2023-05-21T19:16:41.817Z,0.5364
2023-05-21T19:17:44.652Z,0.5126
2023-05-21T19:18:47.646Z,0.5211
2023-05-21T19:19:50.599Z,0.5174
2023-05-21T19:20:53.491Z,0.5263
2023-05-21T19:21:56.501Z,0.5145
2023-05-21T19:22:59.421Z,0.5461
2023-05-21T19:24:04.853Z,0.5388
2023-05-21T19:25:05.314Z,0.5300
2023-05-21T19:26:08.270Z,0.5098
2023-05-21T19:27:11.332Z,0.5204
2023-05-21T19:28:14.232Z,0.5103
2023-05-21T19:29:17.138Z,0.5167
2023-05-21T19:30:20.170Z,0.5354
2023-05-21T19:31:23.276Z,0.5443
2023-05-21T19:32:26.055Z,0.5381
2023-05-21T19:33:29.049Z,0.5302
2023-05-21T19:34:32.031Z,0.5247
2023-05-21T19:35:34.944Z,0.5195
2023-05-21T19:36:51.647Z,0.5158
2023-05-21T19:37:40.734Z,0.5333
2023-05-21T19:38:43.677Z,0.5437
2023-05-21T19:39:46.696Z,0.5259
2023-05-21T19:40:49.575Z,0.5365
2023-05-21T19:41:52.549Z,0.5391
2023-05-21T19:42:55.490Z,0.5390
2023-05-21T19:43:58.436Z,0.5424
2023-05-21T19:45:01.363Z,0.5368
2023-05-21T19:46:04.383Z,0.5484
2023-05-21T19:47:07.286Z,0.5584
2023-05-21T19:48:10.275Z,0.5558
2023-05-21T19:49:13.314Z,0.5234
2023-05-21T19:50:16.214Z,0.5410
2023-05-21T19:51:19.138Z,0.5602
2023-05-21T19:52:22.087Z,0.5834
2023-05-21T19:53:24.978Z,0.5445
2023-05-21T19:54:27.969Z,0.5444
2023-05-21T19:55:30.883Z,0.5521
2023-05-21T19:56:33.847Z,0.5421
2023-05-21T19:57:36.778Z,0.5425
2023-05-21T19:58:39.735Z,0.5202
2023-05-21T19:59:42.693Z,0.5322
2023-05-21T20:00:45.957Z,0.5287
2023-05-21T20:01:48.602Z,0.5273
2023-05-21T20:02:51.609Z,0.5162
2023-05-21T20:03:54.604Z,0.5294
2023-05-21T20:04:57.563Z,0.5413
2023-05-21T20:06:00.404Z,0.5331
2023-05-21T20:07:03.352Z,0.5308
2023-05-21T20:08:06.334Z,0.5268
2023-05-21T20:09:09.283Z,0.5396
2023-05-21T20:10:12.287Z,0.5447
2023-05-21T20:11:15.157Z,0.5386
2023-05-21T20:12:18.064Z,0.5379
2023-05-21T20:13:21.238Z,0.5377
2023-05-21T20:14:23.957Z,0.5327
2023-05-21T20:15:27.072Z,0.5192
2023-05-21T20:16:29.864Z,0.5101
2023-05-21T20:17:32.937Z,0.5195
2023-05-21T20:18:35.765Z,0.5105
2023-05-21T20:19:38.768Z,0.5081
2023-05-21T20:20:41.843Z,0.5283
2023-05-21T20:21:44.600Z,0.5243
2023-05-21T20:22:47.551Z,0.5347
2023-05-21T20:23:50.841Z,0.5226
2023-05-21T20:24:53.577Z,0.5185
2023-05-21T20:25:56.401Z,0.5226
2023-05-21T20:26:59.349Z,0.5487
2023-05-21T20:28:02.302Z,0.5333
2023-05-21T20:29:05.256Z,0.5413
2023-05-21T20:30:08.511Z,0.5380
2023-05-21T20:31:11.239Z,0.5151
2023-05-21T20:32:14.080Z,0.5284
2023-05-21T20:33:17.457Z,0.5118
2023-05-21T20:34:19.996Z,0.5248
2023-05-21T20:35:22.967Z,0.5227
2023-05-21T20:36:25.987Z,0.5362
2023-05-21T20:37:28.927Z,0.5470
2023-05-21T20:38:31.934Z,0.5236
2023-05-21T20:39:34.849Z,0.5327
2023-05-21T20:40:37.916Z,0.5543
2023-05-21T20:41:40.749Z,0.5505
2023-05-21T20:42:43.701Z,0.5753
2023-05-21T20:43:46.642Z,0.5239
2023-05-21T20:44:49.602Z,0.5058
2023-05-21T20:45:52.582Z,0.5371
2023-05-21T20:46:55.563Z,0.5777
2023-05-21T20:47:58.629Z,0.5499
2023-05-21T20:49:01.537Z,0.5388
2023-05-21T20:50:04.391Z,0.5328
2023-05-21T20:51:07.384Z,0.5412
2023-05-21T20:52:10.318Z,0.5428
2023-05-21T20:53:13.239Z,0.5407
2023-05-21T20:54:16.692Z,0.5308
2023-05-21T20:55:19.169Z,0.5395
2023-05-21T20:56:39.896Z,0.5307
2023-05-21T20:57:25.163Z,0.5451
2023-05-21T20:58:28.021Z,0.5362
2023-05-21T20:59:30.951Z,0.5440
2023-05-21T21:00:33.926Z,0.5453
2023-05-21T21:01:36.875Z,0.5466
2023-05-21T21:02:40.024Z,0.5258
2023-05-21T21:03:42.846Z,0.5068
2023-05-21T21:04:45.741Z,0.5102
2023-05-21T21:05:48.674Z,0.5147
2023-05-21T21:06:51.641Z,0.5219
2023-05-21T21:07:55.887Z,0.5100
2023-05-21T21:08:57.564Z,0.5221
2023-05-21T21:10:00.571Z,0.5371
2023-05-21T21:11:03.480Z,0.5166
2023-05-21T21:12:17.861Z,0.5161
2023-05-21T21:13:09.397Z,0.5353
2023-05-21T21:14:12.317Z,0.5332
2023-05-21T21:15:15.270Z,0.5413
2023-05-21T21:16:18.281Z,0.5647
2023-05-21T21:17:21.278Z,0.5601
2023-05-21T21:18:24.130Z,0.5206
2023-05-21T21:19:27.259Z,0.5428
2023-05-21T21:20:30.181Z,0.5726
2023-05-21T21:21:32.980Z,0.5651
2023-05-21T21:22:35.910Z,0.5510
2023-05-21T21:23:38.866Z,0.5425
2023-05-21T21:24:41.824Z,0.5514
2023-05-21T21:25:44.766Z,0.5308
2023-05-21T21:26:47.705Z,0.5430
2023-05-21T21:27:50.658Z,0.5384
2023-05-21T21:28:53.606Z,0.5420
2023-05-21T21:29:56.553Z,0.5396
2023-05-21T21:30:59.517Z,0.5503
2023-05-21T21:32:02.575Z,0.5368
2023-05-21T21:33:05.575Z,0.5331
2023-05-21T21:34:08.406Z,0.5488
2023-05-21T21:35:11.309Z,0.5431
2023-05-21T21:36:14.429Z,0.5543
2023-05-21T21:37:17.187Z,0.5460
2023-05-21T21:38:20.165Z,0.5209
2023-05-21T21:39:23.097Z,0.5390
2023-05-21T21:40:26.034Z,0.5408
2023-05-21T21:41:28.973Z,0.5260
2023-05-21T21:42:32.031Z,0.5167
2023-05-21T21:43:34.884Z,0.5200
2023-05-21T21:44:37.828Z,0.5404
2023-05-21T21:45:40.776Z,0.5397
2023-05-21T21:46:43.739Z,0.5435
2023-05-21T21:47:46.814Z,0.5511
2023-05-21T21:48:49.633Z,0.5546
2023-05-21T21:49:52.570Z,0.5470
2023-05-21T21:50:55.723Z,0.5321
2023-05-21T21:51:58.478Z,0.5322
2023-05-21T21:53:01.420Z,0.5572
2023-05-21T21:54:04.386Z,0.5581
2023-05-21T21:55:07.347Z,0.5430
2023-05-21T21:56:10.262Z,0.5555
2023-05-21T21:57:13.216Z,0.5697
2023-05-21T21:58:16.163Z,0.5586
2023-05-21T21:59:19.129Z,0.5499
2023-05-21T22:00:22.075Z,0.5354
2023-05-21T22:01:25.118Z,0.5373
2023-05-21T22:02:28.022Z,0.5576
2023-05-21T22:03:30.919Z,0.5232
2023-05-21T22:04:33.905Z,0.5202
2023-05-21T22:05:36.818Z,0.5668
2023-05-21T22:06:39.780Z,0.5605
2023-05-21T22:07:42.737Z,0.5527
2023-05-21T22:08:45.693Z,0.5421
2023-05-21T22:09:48.618Z,0.5460
2023-05-21T22:10:51.568Z,0.5512
2023-05-21T22:11:54.516Z,0.5479
2023-05-21T22:12:57.433Z,0.5611
2023-05-21T22:14:00.436Z,0.5564
2023-05-21T22:15:03.345Z,0.5363
2023-05-21T22:16:06.335Z,0.5523
2023-05-21T22:17:09.352Z,0.5557
2023-05-21T22:18:12.250Z,0.5272
2023-05-21T22:19:15.163Z,0.5236
2023-05-21T22:20:18.087Z,0.5411
2023-05-21T22:21:21.021Z,0.5394
2023-05-21T22:22:23.973Z,0.5691
2023-05-21T22:23:26.913Z,0.5431
2023-05-21T22:24:32.987Z,0.5320
2023-05-21T22:25:32.850Z,0.5518
2023-05-21T22:26:35.790Z,0.5566
2023-05-21T22:27:38.764Z,0.5476
2023-05-21T22:28:41.676Z,0.5274
2023-05-21T22:29:44.620Z,0.5280
2023-05-21T22:30:47.600Z,0.5212
2023-05-21T22:31:50.544Z,0.5179
2023-05-21T22:32:53.511Z,0.5171
2023-05-21T22:33:56.438Z,0.5409
2023-05-21T22:34:59.382Z,0.5431
2023-05-21T22:36:02.331Z,0.5343
2023-05-21T22:37:05.272Z,0.5451
2023-05-21T22:38:08.218Z,0.5645
2023-05-21T22:39:11.355Z,0.5553
2023-05-21T22:40:14.102Z,0.5426
2023-05-21T22:41:17.078Z,0.5386
2023-05-21T22:42:20.019Z,0.5450
2023-05-21T22:43:22.996Z,0.5390
2023-05-21T22:44:25.921Z,0.5313
2023-05-21T22:45:28.892Z,0.5474
2023-05-21T22:46:31.844Z,0.5147
2023-05-21T22:47:34.830Z,0.5232
2023-05-21T22:48:37.713Z,0.5404
2023-05-21T22:49:40.750Z,0.5431
2023-05-21T22:50:43.623Z,0.5390
2023-05-21T22:51:46.598Z,0.5360
2023-05-21T22:52:49.522Z,0.5353
2023-05-21T22:53:52.499Z,0.5213
2023-05-21T22:54:55.420Z,0.5436
2023-05-21T22:55:58.368Z,0.5492
2023-05-21T22:57:01.318Z,0.5424
2023-05-21T22:58:04.287Z,0.5270
2023-05-21T22:59:07.223Z,0.5261
2023-05-21T23:00:10.185Z,0.5349
2023-05-21T23:01:13.115Z,0.5163
2023-05-21T23:02:16.173Z,0.5257
2023-05-21T23:03:18.998Z,0.5584
2023-05-21T23:04:32.136Z,0.5385
2023-05-21T23:05:24.932Z,0.5462
2023-05-21T23:06:27.901Z,0.5428
2023-05-21T23:07:30.825Z,0.5355
2023-05-21T23:08:33.776Z,0.5188
2023-05-21T23:09:36.749Z,0.5366
2023-05-21T23:10:39.978Z,0.5402
2023-05-21T23:11:42.646Z,0.5305
2023-05-21T23:12:45.620Z,0.5300
2023-05-21T23:13:48.577Z,0.5319
2023-05-21T23:14:51.516Z,0.5274
2023-05-21T23:15:54.534Z,0.5101
2023-05-21T23:16:57.401Z,0.5161
2023-05-21T23:18:00.419Z,0.5374
2023-05-21T23:19:03.369Z,0.5310
2023-05-21T23:20:06.300Z,0.5449
2023-05-21T23:21:09.281Z,0.5343
2023-05-21T23:22:12.204Z,0.5150
2023-05-21T23:23:15.116Z,0.5269
2023-05-21T23:24:18.079Z,0.5468
2023-05-21T23:25:21.106Z,0.5457
2023-05-21T23:26:23.977Z,0.5554
2023-05-21T23:27:26.936Z,0.5469
2023-05-21T23:28:29.870Z,0.5635
2023-05-21T23:29:32.835Z,0.5360
2023-05-21T23:30:35.825Z,0.5272
2023-05-21T23:31:38.743Z,0.5280
2023-05-21T23:32:41.726Z,0.5374
2023-05-21T23:33:44.633Z,0.5119
2023-05-21T23:34:47.610Z,0.5178
2023-05-21T23:35:50.617Z,0.4956
2023-05-21T23:36:53.498Z,0.4930
2023-05-21T23:37:56.464Z,0.5166
2023-05-21T23:38:59.397Z,0.5259
2023-05-21T23:40:02.360Z,0.5428
2023-05-21T23:41:05.279Z,0.5462
2023-05-21T23:42:08.242Z,0.5367
2023-05-21T23:43:11.182Z,0.5421
2023-05-21T23:44:14.199Z,0.5507
2023-05-21T23:45:17.097Z,0.5541
2023-05-21T23:46:20.106Z,0.5575
2023-05-21T23:47:22.997Z,0.5423
2023-05-21T23:48:25.978Z,0.5156
2023-05-21T23:49:28.886Z,0.5181
2023-05-21T23:50:31.864Z,0.5287
2023-05-21T23:51:34.826Z,0.5306
2023-05-21T23:52:37.781Z,0.5544
2023-05-21T23:53:40.701Z,0.5267
2023-05-21T23:54:43.655Z,0.5157
2023-05-21T23:55:46.599Z,0.5265
2023-05-21T23:56:49.569Z,0.5498
2023-05-21T23:57:52.508Z,0.5452
2023-05-21T23:58:55.469Z,0.5182
2023-05-21T23:59:58.400Z,0.5335
